createdAt,value
2019-02-15T00:01:20.574Z,22.73
2019-02-15T00:03:54.554Z,19.70
2019-02-15T00:06:24.441Z,19.47
2019-02-15T00:08:54.223Z,17.40
2019-02-15T00:11:28.465Z,17.93
2019-02-15T00:13:59.119Z,15.50
2019-02-15T00:16:28.847Z,16.33
2019-02-15T00:19:16.476Z,16.07
2019-02-15T00:21:49.449Z,16.37
2019-02-15T00:24:21.900Z,16.13
2019-02-15T00:26:51.687Z,16.73
2019-02-15T00:29:21.449Z,19.73
2019-02-15T00:31:51.828Z,18.77
2019-02-15T00:34:21.885Z,17.77
2019-02-15T00:36:53.662Z,19.17
2019-02-15T00:39:24.607Z,18.27
2019-02-15T00:41:54.979Z,15.77
2019-02-15T00:44:27.600Z,17.73
2019-02-15T00:47:14.861Z,18.40
2019-02-15T00:50:03.851Z,15.30
2019-02-15T00:52:46.268Z,23.33
2019-02-15T00:55:35.573Z,20.53
2019-02-15T00:58:29.411Z,17.10
2019-02-15T01:01:35.537Z,18.23
2019-02-15T01:04:27.641Z,18.23
2019-02-15T01:07:22.401Z,18.10
2019-02-15T01:10:05.676Z,17.70
2019-02-15T01:12:50.136Z,16.50
2019-02-15T01:15:20.532Z,17.77
2019-02-15T01:17:50.328Z,18.87
2019-02-15T01:20:23.244Z,19.93
2019-02-15T01:22:53.984Z,16.27
2019-02-15T01:25:26.323Z,17.80
2019-02-15T01:28:04.433Z,16.60
2019-02-15T01:30:57.315Z,16.17
2019-02-15T01:33:49.743Z,17.50
2019-02-15T01:36:39.377Z,18.83
2019-02-15T01:39:32.680Z,20.13
2019-02-15T01:42:19.794Z,18.43
2019-02-15T01:44:57.286Z,15.23
2019-02-15T01:47:40.224Z,17.57
2019-02-15T01:50:10.716Z,17.70
2019-02-15T01:52:42.341Z,20.33
2019-02-15T01:55:13.229Z,19.53
2019-02-15T01:57:43.046Z,17.03
2019-02-15T02:00:15.625Z,18.63
2019-02-15T02:02:47.889Z,17.93
2019-02-15T02:05:18.128Z,17.63
2019-02-15T02:07:48.592Z,17.33
2019-02-15T02:10:18.803Z,17.97
2019-02-15T02:12:49.583Z,17.87
2019-02-15T02:15:23.405Z,20.27
2019-02-15T02:17:54.824Z,19.23
2019-02-15T02:20:25.341Z,21.27
2019-02-15T02:22:58.430Z,22.10
2019-02-15T02:25:28.156Z,21.70
2019-02-15T02:27:58.925Z,20.00
2019-02-15T02:30:28.764Z,20.40
2019-02-15T02:32:58.794Z,20.23
2019-02-15T02:35:29.668Z,17.97
2019-02-15T02:37:59.874Z,17.00
2019-02-15T02:40:30.177Z,18.53
2019-02-15T02:43:00.816Z,22.47
2019-02-15T02:45:32.917Z,21.37
2019-02-15T02:48:03.528Z,19.97
2019-02-15T02:50:34.254Z,22.37
2019-02-15T02:53:04.217Z,20.70
2019-02-15T02:55:34.706Z,19.60
2019-02-15T02:58:04.516Z,19.20
2019-02-15T03:00:34.220Z,21.43
2019-02-15T03:03:04.525Z,22.43
2019-02-15T03:05:34.591Z,21.20
2019-02-15T03:08:04.282Z,21.50
2019-02-15T03:10:35.110Z,22.60
2019-02-15T03:13:05.840Z,21.27
2019-02-15T03:15:36.463Z,20.10
2019-02-15T03:18:06.879Z,21.53
2019-02-15T03:20:36.601Z,19.87
2019-02-15T03:23:07.357Z,22.30
2019-02-15T03:25:37.780Z,23.17
2019-02-15T03:28:08.014Z,23.43
2019-02-15T03:30:39.459Z,20.90
2019-02-15T03:33:09.393Z,19.97
2019-02-15T03:35:42.135Z,23.33
2019-02-15T03:38:22.842Z,23.27
2019-02-15T03:40:57.338Z,21.87
2019-02-15T03:43:28.286Z,22.47
2019-02-15T03:46:00.957Z,21.90
2019-02-15T03:48:31.452Z,24.03
2019-02-15T03:51:01.264Z,44.43
2019-02-15T03:53:34.574Z,20.83
2019-02-15T03:56:06.702Z,21.07
2019-02-15T03:58:36.522Z,21.83
2019-02-15T04:01:06.597Z,24.47
2019-02-15T04:03:38.006Z,23.13
2019-02-15T04:06:08.581Z,25.13
2019-02-15T04:08:39.369Z,25.57
2019-02-15T04:11:09.926Z,22.30
2019-02-15T04:13:39.734Z,26.27
2019-02-15T04:16:09.629Z,22.93
2019-02-15T04:18:40.026Z,26.50
2019-02-15T04:21:09.900Z,23.27
2019-02-15T04:23:39.647Z,22.03
2019-02-15T04:26:10.553Z,24.23
2019-02-15T04:28:40.949Z,22.53
2019-02-15T04:31:14.495Z,26.90
2019-02-15T04:33:45.943Z,22.13
2019-02-15T04:36:16.954Z,25.00
2019-02-15T04:38:49.044Z,25.10
2019-02-15T04:41:19.685Z,27.07
2019-02-15T04:43:49.473Z,24.03
2019-02-15T04:46:20.205Z,23.37
2019-02-15T04:48:50.678Z,26.43
2019-02-15T04:51:21.280Z,26.17
2019-02-15T04:53:52.773Z,23.07
2019-02-15T04:56:22.583Z,24.57
2019-02-15T04:58:53.099Z,24.30
2019-02-15T05:01:23.093Z,27.10
2019-02-15T05:03:55.052Z,29.47
2019-02-15T05:06:24.824Z,25.70
2019-02-15T05:08:55.314Z,26.80
2019-02-15T05:11:28.265Z,23.50
2019-02-15T05:13:58.326Z,21.77
2019-02-15T05:16:28.137Z,25.33
2019-02-15T05:18:58.564Z,26.63
2019-02-15T05:21:29.102Z,26.07
2019-02-15T05:23:59.618Z,23.83
2019-02-15T05:26:29.810Z,24.87
2019-02-15T05:29:02.632Z,23.13
2019-02-15T05:31:34.584Z,22.87
2019-02-15T05:34:05.637Z,26.47
2019-02-15T05:36:36.291Z,27.53
2019-02-15T05:39:10.809Z,27.07
2019-02-15T05:41:41.909Z,24.67
2019-02-15T05:44:12.586Z,27.40
2019-02-15T05:46:51.434Z,27.47
2019-02-15T05:49:22.089Z,28.70
2019-02-15T05:51:52.762Z,27.43
2019-02-15T05:54:23.064Z,29.30
2019-02-15T05:56:53.488Z,26.33
2019-02-15T05:59:24.975Z,29.53
2019-02-15T06:01:55.986Z,27.20
2019-02-15T06:04:27.946Z,30.47
2019-02-15T06:06:58.365Z,26.33
2019-02-15T06:09:28.895Z,26.60
2019-02-15T06:11:59.706Z,27.37
2019-02-15T06:14:31.234Z,28.27
2019-02-15T06:17:02.251Z,26.93
2019-02-15T06:19:33.198Z,27.03
2019-02-15T06:22:28.706Z,27.43
2019-02-15T06:25:02.352Z,29.20
2019-02-15T06:27:34.250Z,26.10
2019-02-15T06:30:06.216Z,21.83
2019-02-15T06:32:38.191Z,24.83
2019-02-15T06:35:16.191Z,26.67
2019-02-15T06:37:46.946Z,26.17
2019-02-15T06:40:22.443Z,26.83
2019-02-15T06:42:52.592Z,24.97
2019-02-15T06:45:25.266Z,28.23
2019-02-15T06:47:55.653Z,25.57
2019-02-15T06:50:27.305Z,23.40
2019-02-15T06:52:57.141Z,28.20
2019-02-15T06:55:30.279Z,23.13
2019-02-15T06:58:01.370Z,26.53
2019-02-15T07:00:51.945Z,27.00
2019-02-15T07:03:41.352Z,24.90
2019-02-15T07:06:15.456Z,28.57
2019-02-15T07:08:48.453Z,27.80
2019-02-15T07:11:18.984Z,27.80
2019-02-15T07:13:49.525Z,27.00
2019-02-15T07:16:20.633Z,31.30
2019-02-15T07:18:50.461Z,29.17
2019-02-15T07:21:20.473Z,30.53
2019-02-15T07:23:52.346Z,23.63
2019-02-15T07:26:31.178Z,25.07
2019-02-15T07:29:08.339Z,24.40
2019-02-15T07:31:39.539Z,26.27
2019-02-15T07:34:09.768Z,23.93
2019-02-15T07:36:40.499Z,26.77
2019-02-15T07:39:10.675Z,32.67
2019-02-15T07:41:48.896Z,30.27
2019-02-15T07:44:19.633Z,28.47
2019-02-15T07:46:51.967Z,24.50
2019-02-15T07:49:27.126Z,21.13
2019-02-15T07:51:58.183Z,25.13
2019-02-15T07:54:28.162Z,26.27
2019-02-15T07:56:58.179Z,22.80
2019-02-15T07:59:29.711Z,24.10
2019-02-15T08:02:02.121Z,21.93
2019-02-15T08:04:33.894Z,23.50
2019-02-15T08:07:04.871Z,22.47
2019-02-15T08:09:37.392Z,24.30
2019-02-15T08:12:07.434Z,24.70
2019-02-15T08:14:37.977Z,24.20
2019-02-15T08:17:10.866Z,22.80
2019-02-15T08:19:42.161Z,21.37
2019-02-15T08:22:14.386Z,22.40
2019-02-15T08:24:45.595Z,22.17
2019-02-15T08:27:19.089Z,22.77
2019-02-15T08:29:50.314Z,21.13
2019-02-15T08:32:21.658Z,22.73
2019-02-15T08:34:51.920Z,21.17
2019-02-15T08:37:21.699Z,23.90
2019-02-15T08:39:53.909Z,20.40
2019-02-15T08:42:26.219Z,22.33
2019-02-15T08:44:58.416Z,24.57
2019-02-15T08:47:28.489Z,23.83
2019-02-15T08:50:05.302Z,24.20
2019-02-15T08:52:36.741Z,25.60
2019-02-15T08:55:07.210Z,23.03
2019-02-15T08:57:39.539Z,28.37
2019-02-15T09:00:10.992Z,22.60
2019-02-15T09:02:42.621Z,29.30
2019-02-15T09:05:21.849Z,26.30
2019-02-15T09:07:52.942Z,23.50
2019-02-15T09:10:23.549Z,27.50
2019-02-15T09:12:54.353Z,25.33
2019-02-15T09:15:24.932Z,26.60
2019-02-15T09:17:55.987Z,24.87
2019-02-15T09:20:28.922Z,28.00
2019-02-15T09:23:01.600Z,29.07
2019-02-15T09:25:32.137Z,25.77
2019-02-15T09:28:21.814Z,29.63
2019-02-15T09:30:54.596Z,33.00
2019-02-15T09:33:24.813Z,30.53
2019-02-15T09:36:00.100Z,29.87
2019-02-15T09:38:31.895Z,29.37
2019-02-15T09:41:06.174Z,27.07
2019-02-15T09:43:37.017Z,28.87
2019-02-15T09:46:19.214Z,30.80
2019-02-15T09:48:48.768Z,29.53
2019-02-15T09:51:20.197Z,25.90
2019-02-15T09:53:55.789Z,29.47
2019-02-15T09:56:27.408Z,28.77
2019-02-15T09:58:57.502Z,28.93
2019-02-15T10:01:32.760Z,30.30
2019-02-15T10:04:03.732Z,28.60
2019-02-15T10:06:35.858Z,31.20
2019-02-15T10:09:08.381Z,27.57
2019-02-15T10:11:39.361Z,28.50
2019-02-15T10:14:11.381Z,32.67
2019-02-15T10:16:42.481Z,29.00
2019-02-15T10:19:22.164Z,30.93
2019-02-15T10:21:48.502Z,32.80
2019-02-15T10:24:19.932Z,32.50
2019-02-15T10:26:50.172Z,32.63
2019-02-15T10:29:20.745Z,43.50
2019-02-15T10:31:51.027Z,33.23
2019-02-15T10:34:23.156Z,31.10
2019-02-15T10:36:54.269Z,30.00
2019-02-15T10:39:26.225Z,34.73
2019-02-15T10:41:57.667Z,31.63
2019-02-15T10:44:31.078Z,30.37
2019-02-15T10:47:02.897Z,29.43
2019-02-15T10:49:34.349Z,32.37
2019-02-15T10:52:05.268Z,32.43
2019-02-15T10:54:38.097Z,36.47
2019-02-15T10:57:08.801Z,32.67
2019-02-15T10:59:42.048Z,37.10
2019-02-15T11:02:13.412Z,33.40
2019-02-15T11:04:45.939Z,34.63
2019-02-15T11:07:20.210Z,31.17
2019-02-15T11:09:50.837Z,37.60
2019-02-15T11:12:20.820Z,34.57
2019-02-15T11:14:52.149Z,32.47
2019-02-15T11:17:23.611Z,31.50
2019-02-15T11:19:57.770Z,33.70
2019-02-15T11:22:32.692Z,31.73
2019-02-15T11:25:05.892Z,34.43
2019-02-15T11:27:41.202Z,35.33
2019-02-15T11:30:12.784Z,33.77
2019-02-15T11:35:19.075Z,36.07
2019-02-15T11:37:53.597Z,37.80
2019-02-15T11:40:25.255Z,32.23
2019-02-15T11:42:59.736Z,33.20
2019-02-15T11:45:34.678Z,34.17
2019-02-15T11:48:08.385Z,34.30
2019-02-15T11:50:42.189Z,32.47
2019-02-15T11:53:15.881Z,30.47
2019-02-15T11:55:52.449Z,33.53
2019-02-15T12:01:16.373Z,31.33
2019-02-15T12:03:49.667Z,30.37
2019-02-15T12:06:26.374Z,31.13
2019-02-15T12:09:03.699Z,31.70
2019-02-15T12:11:35.548Z,32.97
2019-02-15T12:14:12.078Z,30.93
2019-02-15T12:16:50.541Z,29.53
2019-02-15T12:19:28.045Z,30.00
2019-02-15T12:21:59.060Z,31.57
2019-02-15T12:24:32.705Z,30.33
2019-02-15T12:27:06.824Z,28.93
2019-02-15T12:29:40.864Z,25.07
2019-02-15T12:32:16.093Z,26.67
2019-02-15T12:34:48.975Z,25.37
2019-02-15T12:37:24.010Z,24.80
2019-02-15T12:39:56.485Z,24.60
2019-02-15T12:42:41.068Z,26.93
2019-02-15T12:51:16.667Z,27.43
2019-02-15T12:54:10.334Z,23.57
2019-02-15T12:56:44.507Z,24.23
2019-02-15T12:59:24.348Z,24.63
2019-02-15T13:01:58.807Z,24.07
2019-02-15T13:04:30.378Z,27.70
2019-02-15T13:07:05.609Z,26.77
2019-02-15T13:09:38.309Z,27.50
2019-02-15T13:12:25.002Z,26.27
2019-02-15T13:15:02.258Z,28.20
2019-02-15T13:17:35.389Z,28.50
2019-02-15T13:20:08.469Z,25.63
2019-02-15T13:22:43.592Z,28.17
2019-02-15T13:25:17.233Z,30.27
2019-02-15T13:27:50.722Z,27.07
2019-02-15T13:30:28.687Z,28.63
2019-02-15T13:33:14.863Z,27.60
2019-02-15T13:35:50.822Z,27.50
2019-02-15T13:38:25.483Z,24.27
2019-02-15T13:41:00.413Z,27.80
2019-02-15T13:43:32.531Z,26.70
2019-02-15T13:46:05.246Z,26.00
2019-02-15T13:51:21.455Z,27.47
2019-02-15T13:53:52.753Z,23.63
2019-02-15T13:56:25.397Z,27.40
2019-02-15T13:58:57.361Z,25.43
2019-02-15T14:01:31.657Z,25.60
2019-02-15T14:04:03.844Z,24.43
2019-02-15T14:06:33.955Z,23.10
2019-02-15T14:09:15.490Z,23.67
2019-02-15T14:11:47.529Z,23.57
2019-02-15T14:14:21.928Z,22.93
2019-02-15T14:16:51.773Z,25.57
2019-02-15T14:19:26.187Z,26.97
2019-02-15T14:21:58.247Z,24.60
2019-02-15T14:24:31.040Z,26.43
2019-02-15T14:27:03.353Z,26.10
2019-02-15T14:29:35.674Z,24.57
2019-02-15T14:32:06.187Z,27.27
2019-02-15T14:34:45.860Z,24.47
2019-02-15T14:37:18.528Z,26.83
2019-02-15T14:39:50.684Z,26.73
2019-02-15T14:42:25.435Z,25.07
2019-02-15T14:44:57.085Z,27.03
2019-02-15T14:47:32.246Z,24.27
2019-02-15T14:50:04.187Z,24.60
2019-02-15T14:52:35.305Z,26.37
2019-02-15T14:55:08.628Z,24.13
2019-02-15T14:57:39.372Z,23.57
2019-02-15T15:00:17.565Z,27.07
2019-02-15T15:02:50.585Z,27.27
2019-02-15T15:05:21.185Z,25.07
2019-02-15T15:07:55.399Z,25.40
2019-02-15T15:10:26.408Z,26.83
2019-02-15T15:12:57.322Z,24.23
2019-02-15T15:15:29.679Z,25.80
2019-02-15T15:18:12.750Z,26.17
2019-02-15T15:20:35.728Z,25.43
2019-02-15T15:23:06.518Z,24.53
2019-02-15T15:25:37.551Z,25.43
2019-02-15T15:28:16.731Z,25.20
2019-02-15T15:30:51.613Z,25.77
2019-02-15T15:33:23.266Z,24.60
2019-02-15T15:35:57.354Z,25.57
2019-02-15T15:38:30.632Z,26.27
2019-02-15T15:41:02.936Z,26.63
2019-02-15T15:43:33.796Z,25.30
2019-02-15T15:46:04.795Z,23.80
2019-02-15T15:48:36.190Z,24.07
2019-02-15T15:51:10.087Z,25.53
2019-02-15T15:53:41.865Z,26.70
2019-02-15T15:56:17.724Z,26.62
2019-02-15T15:58:51.505Z,23.17
2019-02-15T16:01:21.917Z,27.57
2019-02-15T16:04:03.355Z,24.63
2019-02-15T16:06:34.015Z,24.33
2019-02-15T16:09:07.789Z,25.77
2019-02-15T16:11:37.896Z,28.10
2019-02-15T16:14:07.746Z,27.30
2019-02-15T16:16:38.551Z,26.57
2019-02-15T16:19:10.844Z,25.70
2019-02-15T16:21:41.327Z,23.13
2019-02-15T16:24:16.131Z,24.57
2019-02-15T16:26:49.468Z,25.20
2019-02-15T16:29:19.900Z,31.77
2019-02-15T16:32:10.091Z,24.20
2019-02-15T16:34:40.650Z,23.63
2019-02-15T16:37:11.192Z,26.03
2019-02-15T16:39:41.237Z,26.43
2019-02-15T16:42:11.311Z,26.40
2019-02-15T16:44:42.450Z,26.13
2019-02-15T16:47:13.669Z,29.87
2019-02-15T16:49:43.944Z,24.33
2019-02-15T16:52:14.061Z,26.10
2019-02-15T16:54:44.337Z,26.67
2019-02-15T16:57:15.106Z,26.83
2019-02-15T16:59:46.804Z,25.53
2019-02-15T17:02:16.633Z,25.50
2019-02-15T17:04:47.337Z,25.13
2019-02-15T17:07:19.445Z,25.20
2019-02-15T17:09:50.487Z,23.50
2019-02-15T17:12:20.826Z,25.83
2019-02-15T17:14:52.110Z,28.17
2019-02-15T17:17:53.326Z,27.93
2019-02-15T17:20:23.908Z,26.23
2019-02-15T17:22:55.890Z,26.37
2019-02-15T17:25:26.831Z,26.77
2019-02-15T17:27:57.337Z,23.57
2019-02-15T17:30:27.041Z,25.03
2019-02-15T17:32:57.372Z,23.73
2019-02-15T17:35:30.330Z,25.20
2019-02-15T17:38:00.489Z,25.17
2019-02-15T17:40:31.502Z,30.27
2019-02-15T17:43:01.720Z,24.37
2019-02-15T17:45:32.307Z,23.77
2019-02-15T17:48:05.829Z,23.63
2019-02-15T17:50:36.221Z,24.00
2019-02-15T17:53:06.762Z,21.50
2019-02-15T17:55:37.580Z,22.10
2019-02-15T17:58:07.314Z,22.93
2019-02-15T18:00:40.208Z,23.47
2019-02-15T18:03:11.162Z,22.53
2019-02-15T18:05:40.949Z,19.43
2019-02-15T18:08:11.307Z,22.67
2019-02-15T18:10:41.881Z,22.03
2019-02-15T18:13:13.384Z,23.40
2019-02-15T18:15:44.021Z,21.87
2019-02-15T18:18:15.438Z,20.17
2019-02-15T18:20:45.826Z,23.80
2019-02-15T18:23:16.326Z,21.37
2019-02-15T18:25:46.528Z,21.30
2019-02-15T18:28:16.117Z,25.10
2019-02-15T18:30:47.999Z,22.80
2019-02-15T18:33:18.446Z,20.43
2019-02-15T18:35:48.743Z,19.10
2019-02-15T18:38:18.618Z,17.53
2019-02-15T18:40:50.730Z,17.03
2019-02-15T18:43:20.942Z,19.57
2019-02-15T18:45:51.368Z,16.80
2019-02-15T18:48:21.351Z,17.33
2019-02-15T18:50:50.879Z,19.60
2019-02-15T18:53:21.396Z,19.97
2019-02-15T18:55:52.343Z,21.80
2019-02-15T18:58:22.834Z,19.07
2019-02-15T19:00:53.327Z,18.60
2019-02-15T19:03:23.099Z,17.13
2019-02-15T19:05:53.116Z,19.30
2019-02-15T19:08:23.542Z,21.97
2019-02-15T19:10:55.326Z,16.90
2019-02-15T19:13:28.673Z,17.10
2019-02-15T19:15:59.431Z,17.93
2019-02-15T19:18:29.674Z,16.73
2019-02-15T19:20:59.682Z,17.30
2019-02-15T19:23:29.832Z,18.17
2019-02-15T19:26:00.460Z,23.50
2019-02-15T19:28:30.895Z,20.50
2019-02-15T19:31:01.175Z,18.57
2019-02-15T19:33:31.964Z,20.73
2019-02-15T19:36:01.688Z,17.97
2019-02-15T19:38:32.427Z,17.30
2019-02-15T19:41:07.058Z,18.87
2019-02-15T19:43:45.201Z,21.07
2019-02-15T19:46:15.242Z,18.93
2019-02-15T19:48:44.844Z,21.60
2019-02-15T19:51:16.162Z,21.40
2019-02-15T19:53:50.776Z,17.97
2019-02-15T19:56:24.301Z,24.40
2019-02-15T19:58:58.960Z,19.17
2019-02-15T20:01:32.124Z,17.13
2019-02-15T20:04:08.923Z,20.17
2019-02-15T20:06:40.692Z,17.80
2019-02-15T20:09:11.643Z,21.23
2019-02-15T20:11:41.660Z,17.30
2019-02-15T20:14:13.020Z,21.30
2019-02-15T20:16:44.338Z,21.07
2019-02-15T20:19:14.331Z,19.13
2019-02-15T20:21:48.308Z,21.43
2019-02-15T20:24:18.624Z,20.23
2019-02-15T20:26:48.306Z,20.20
2019-02-15T20:29:21.315Z,20.73
2019-02-15T20:31:52.199Z,18.53
2019-02-15T20:34:22.977Z,19.70
2019-02-15T20:36:53.318Z,18.87
2019-02-15T20:39:23.419Z,20.90
2019-02-15T20:41:54.955Z,19.57
2019-02-15T20:44:24.670Z,21.07
2019-02-15T20:46:54.748Z,21.13
2019-02-15T20:49:24.902Z,22.67
2019-02-15T20:51:54.696Z,21.47
2019-02-15T20:54:24.927Z,21.07
2019-02-15T20:56:56.369Z,21.00
2019-02-15T20:59:26.598Z,21.97
2019-02-15T21:01:57.216Z,22.40
2019-02-15T21:04:27.420Z,23.13
2019-02-15T21:06:57.269Z,25.50
2019-02-15T21:09:26.961Z,22.30
2019-02-15T21:11:56.780Z,20.80
2019-02-15T21:14:26.900Z,25.47
2019-02-15T21:16:57.507Z,22.63
2019-02-15T21:19:28.863Z,23.90
2019-02-15T21:21:59.115Z,22.70
2019-02-15T21:24:29.490Z,24.90
2019-02-15T21:26:59.831Z,26.03
2019-02-15T21:29:34.656Z,23.37
2019-02-15T21:32:04.908Z,24.07
2019-02-15T21:34:36.757Z,24.53
2019-02-15T21:37:06.957Z,21.13
2019-02-15T21:39:39.289Z,24.83
2019-02-15T21:42:11.231Z,22.53
2019-02-15T21:44:41.853Z,22.60
2019-02-15T21:47:12.081Z,25.93
2019-02-15T21:49:43.039Z,28.47
2019-02-15T21:52:13.609Z,23.60
2019-02-15T21:54:44.586Z,22.63
2019-02-15T21:57:14.234Z,24.27
2019-02-15T21:59:45.562Z,24.67
2019-02-15T22:02:18.210Z,23.83
2019-02-15T22:04:49.433Z,25.80
2019-02-15T22:07:19.834Z,24.10
2019-02-15T22:09:50.226Z,23.33
2019-02-15T22:12:20.795Z,22.73
2019-02-15T22:14:51.403Z,22.23
2019-02-15T22:17:21.514Z,25.13
2019-02-15T22:19:52.224Z,22.13
2019-02-15T22:22:22.537Z,23.77
2019-02-15T22:24:53.844Z,21.23
2019-02-15T22:27:24.061Z,25.47
2019-02-15T22:29:53.693Z,21.93
2019-02-15T22:32:23.337Z,24.60
2019-02-15T22:34:54.287Z,23.63
2019-02-15T22:37:23.955Z,30.87
2019-02-15T22:39:53.555Z,24.57
2019-02-15T22:42:23.767Z,24.03
2019-02-15T22:44:54.319Z,24.57
2019-02-15T22:47:25.767Z,24.20
2019-02-15T22:49:56.198Z,22.57
2019-02-15T22:52:26.369Z,22.20
2019-02-15T22:54:56.653Z,24.20
2019-02-15T22:57:26.183Z,22.20
2019-02-15T23:00:00.957Z,51.60
2019-02-15T23:02:28.956Z,25.27
2019-02-15T23:04:58.838Z,21.17
2019-02-15T23:07:28.940Z,20.30
2019-02-15T23:09:59.549Z,20.50
2019-02-15T23:12:29.181Z,20.53
2019-02-15T23:14:59.303Z,26.17
2019-02-15T23:17:32.162Z,23.70
2019-02-15T23:20:02.485Z,22.57
2019-02-15T23:22:33.346Z,21.27
2019-02-15T23:25:03.498Z,25.60
2019-02-15T23:27:33.921Z,20.93
2019-02-15T23:30:04.785Z,19.53
2019-02-15T23:32:35.163Z,23.30
2019-02-15T23:35:05.570Z,20.63
2019-02-15T23:37:35.879Z,21.37
2019-02-15T23:40:06.213Z,20.40
2019-02-15T23:42:36.557Z,19.47
2019-02-15T23:45:06.873Z,20.40
2019-02-15T23:47:37.108Z,21.43
2019-02-15T23:50:08.705Z,18.57
2019-02-15T23:52:38.885Z,23.23
2019-02-15T23:55:09.419Z,18.50
2019-02-15T23:57:42.493Z,21.37
